createdAt,value
2023-05-24T00:00:34.920Z,2.3
2023-05-24T00:01:51.074Z,1.8
2023-05-24T00:03:07.208Z,2.3
2023-05-24T00:04:23.350Z,1.8
2023-05-24T00:05:39.471Z,1.6
2023-05-24T00:06:55.607Z,2
2023-05-24T00:08:11.758Z,2.1
2023-05-24T00:09:27.892Z,2
2023-05-24T00:10:44.088Z,1.5
2023-05-24T00:11:59.313Z,1.8
2023-05-24T00:13:14.523Z,2
2023-05-24T00:14:30.656Z,2.4
2023-05-24T00:15:46.786Z,2.1
2023-05-24T00:17:02.924Z,2.2
2023-05-24T00:18:19.073Z,1.5
2023-05-24T00:19:35.202Z,2.3
2023-05-24T00:20:51.341Z,2.3
2023-05-24T00:22:07.482Z,2
2023-05-24T00:23:23.596Z,2
2023-05-24T00:24:39.756Z,1.6
2023-05-24T00:25:55.889Z,1.9
2023-05-24T00:27:12.030Z,2.1
2023-05-24T00:28:28.158Z,2.4
2023-05-24T00:29:44.294Z,1.9
2023-05-24T00:31:00.432Z,2.5
2023-05-24T00:32:16.563Z,2
2023-05-24T00:33:32.690Z,2
2023-05-24T00:34:48.833Z,1.4
2023-05-24T00:36:04.971Z,1.8
2023-05-24T00:37:21.113Z,2.3
2023-05-24T00:38:37.238Z,1.8
2023-05-24T00:39:53.386Z,2.1
2023-05-24T00:41:09.520Z,1.8
2023-05-24T00:42:25.638Z,1.9
2023-05-24T00:43:41.787Z,2.4
2023-05-24T00:44:57.992Z,1.9
2023-05-24T00:46:13.252Z,1.6
2023-05-24T00:47:28.439Z,1.5
2023-05-24T00:48:44.579Z,1.6
2023-05-24T00:50:00.716Z,1.3
2023-05-24T00:51:16.847Z,1.3
2023-05-24T00:52:32.977Z,1.8
2023-05-24T00:53:49.129Z,2.1
2023-05-24T00:55:05.271Z,1.8
2023-05-24T00:56:21.396Z,2.4
2023-05-24T00:57:37.522Z,2.1
2023-05-24T00:58:53.668Z,2.1
2023-05-24T01:00:09.800Z,1.9
2023-05-24T01:01:25.934Z,1.6
2023-05-24T01:02:42.083Z,1.2
2023-05-24T01:03:58.206Z,1.3
2023-05-24T01:05:14.342Z,1.8
2023-05-24T01:06:30.497Z,1.4
2023-05-24T01:07:46.615Z,2
2023-05-24T01:09:02.748Z,1.7
2023-05-24T01:10:18.892Z,2
2023-05-24T01:11:35.015Z,1.9
2023-05-24T01:12:51.161Z,2.1
2023-05-24T01:14:07.308Z,2.2
2023-05-24T01:15:23.426Z,2
2023-05-24T01:16:39.575Z,1.5
2023-05-24T01:17:55.708Z,2.1
2023-05-24T01:19:11.910Z,2.8
2023-05-24T01:20:27.140Z,2.1
2023-05-24T01:21:43.338Z,2.3
2023-05-24T01:22:58.538Z,2.4
2023-05-24T01:24:14.683Z,1.5
2023-05-24T01:25:30.800Z,2.5
2023-05-24T01:26:46.947Z,2.1
2023-05-24T01:28:03.066Z,1.4
2023-05-24T01:29:19.224Z,1.7
2023-05-24T01:30:35.360Z,1.8
2023-05-24T01:31:51.488Z,2
2023-05-24T01:33:07.625Z,1.9
2023-05-24T01:34:23.754Z,1.3
2023-05-24T01:35:39.904Z,1.6
2023-05-24T01:36:56.025Z,2
2023-05-24T01:38:12.161Z,2.4
2023-05-24T01:39:28.304Z,2.2
2023-05-24T01:40:44.435Z,1.5
2023-05-24T01:42:00.588Z,2.4
2023-05-24T01:43:16.722Z,1.7
2023-05-24T01:44:32.855Z,2.1
2023-05-24T01:45:49.011Z,1.6
2023-05-24T01:47:05.119Z,2.2
2023-05-24T01:48:21.255Z,1.6
2023-05-24T01:49:37.390Z,3.2
2023-05-24T01:50:53.523Z,2
2023-05-24T01:52:09.664Z,1.4
2023-05-24T01:53:25.785Z,2
2023-05-24T01:54:41.997Z,1.7
2023-05-24T01:55:57.245Z,2
2023-05-24T01:57:12.439Z,1.8
2023-05-24T01:58:28.597Z,1.9
2023-05-24T01:59:44.727Z,2.5
2023-05-24T02:01:00.859Z,1.8
2023-05-24T02:02:16.979Z,1.9
2023-05-24T02:03:33.122Z,1.8
2023-05-24T02:04:49.270Z,1.9
2023-05-24T02:06:05.396Z,1.7
2023-05-24T02:07:21.527Z,2.1
2023-05-24T02:08:37.659Z,2.3
2023-05-24T02:09:53.803Z,1.7
2023-05-24T02:11:09.944Z,2.3
2023-05-24T02:12:26.076Z,2
2023-05-24T02:13:42.208Z,1.8
2023-05-24T02:14:58.350Z,1.4
2023-05-24T02:16:14.468Z,2.4
2023-05-24T02:17:30.632Z,2
2023-05-24T02:18:46.765Z,1.9
2023-05-24T02:20:02.894Z,2.2
2023-05-24T02:21:19.027Z,1.5
2023-05-24T02:22:35.147Z,2.7
2023-05-24T02:23:51.300Z,2.3
2023-05-24T02:25:07.435Z,1.9
2023-05-24T02:26:23.568Z,1.6
2023-05-24T02:27:39.695Z,1.9
2023-05-24T02:28:55.890Z,2.1
2023-05-24T02:30:11.128Z,2.2
2023-05-24T02:31:26.343Z,2.2
2023-05-24T02:32:41.481Z,2.6
2023-05-24T02:33:57.622Z,2.4
2023-05-24T02:35:13.749Z,1.6
2023-05-24T02:36:29.897Z,1.6
2023-05-24T02:37:46.018Z,2.4
2023-05-24T02:39:02.177Z,1.7
2023-05-24T02:40:18.304Z,1.9
2023-05-24T02:41:34.434Z,2
2023-05-24T02:42:50.570Z,1.8
2023-05-24T02:44:06.705Z,2
2023-05-24T02:45:22.850Z,2.1
2023-05-24T02:46:38.988Z,2.4
2023-05-24T02:47:55.116Z,2.3
2023-05-24T02:49:11.257Z,2.1
2023-05-24T02:50:27.370Z,2.1
2023-05-24T02:51:43.534Z,2.3
2023-05-24T02:52:59.664Z,2
2023-05-24T02:54:15.800Z,2.6
2023-05-24T02:55:31.928Z,2.5
2023-05-24T02:56:48.069Z,2
2023-05-24T02:58:04.197Z,2.1
2023-05-24T02:59:20.340Z,2.3
2023-05-24T03:00:36.482Z,2
2023-05-24T03:01:52.609Z,1.8
2023-05-24T03:03:08.738Z,2
2023-05-24T03:04:24.886Z,2.7
2023-05-24T03:05:41.025Z,2
2023-05-24T03:06:57.161Z,2
2023-05-24T03:08:13.281Z,2
2023-05-24T03:09:29.413Z,1.6
2023-05-24T03:10:45.559Z,2.3
2023-05-24T03:12:01.697Z,2
2023-05-24T03:13:17.828Z,2.1
2023-05-24T03:14:33.955Z,2.9
2023-05-24T03:15:50.097Z,2
2023-05-24T03:17:06.250Z,2.1
2023-05-24T03:18:22.376Z,2.2
2023-05-24T03:19:38.571Z,1.9
2023-05-24T03:20:53.799Z,2.5
2023-05-24T03:22:09.004Z,2
2023-05-24T03:23:25.142Z,1.9
2023-05-24T03:24:41.282Z,1.8
2023-05-24T03:25:57.419Z,2
2023-05-24T03:27:13.569Z,1.9
2023-05-24T03:28:29.682Z,2.2
2023-05-24T03:29:45.831Z,2.1
2023-05-24T03:31:01.958Z,2.4
2023-05-24T03:32:18.088Z,2
2023-05-24T03:33:34.233Z,2.4
2023-05-24T03:34:50.375Z,1.5
2023-05-24T03:36:06.505Z,2.3
2023-05-24T03:37:22.638Z,1.8
2023-05-24T03:38:38.766Z,2.1
2023-05-24T03:39:54.925Z,1.7
2023-05-24T03:41:11.043Z,1.5
2023-05-24T03:42:27.178Z,2.5
2023-05-24T03:43:43.313Z,2.1
2023-05-24T03:44:59.445Z,1.7
2023-05-24T03:46:15.598Z,2.5
2023-05-24T03:47:31.727Z,1.5
2023-05-24T03:48:47.857Z,1.8
2023-05-24T03:50:03.998Z,2.5
2023-05-24T03:51:20.136Z,2
2023-05-24T03:52:36.278Z,1.8
2023-05-24T03:53:52.473Z,1.9
2023-05-24T03:55:07.715Z,1.7
2023-05-24T03:56:23.894Z,3
2023-05-24T03:57:39.104Z,1.8
2023-05-24T03:58:55.245Z,2.3
2023-05-24T04:00:11.369Z,2.3
2023-05-24T04:01:27.500Z,2.8
2023-05-24T04:02:43.655Z,2.4
2023-05-24T04:03:59.774Z,2.5
2023-05-24T04:05:15.914Z,1.8
2023-05-24T04:06:32.050Z,2
2023-05-24T04:07:48.176Z,2.3
2023-05-24T04:09:04.336Z,2
2023-05-24T04:10:20.458Z,1.6
2023-05-24T04:11:36.601Z,1.8
2023-05-24T04:12:52.720Z,2.3
2023-05-24T04:14:08.853Z,2.2
2023-05-24T04:15:25.008Z,1.7
2023-05-24T04:16:41.134Z,2.5
2023-05-24T04:17:57.000Z,1.7
2023-05-24T04:19:13.407Z,2.7
2023-05-24T04:20:29.539Z,2.2
2023-05-24T04:21:45.681Z,1.4
2023-05-24T04:23:01.820Z,2.1
2023-05-24T04:24:17.945Z,2.2
2023-05-24T04:25:34.088Z,1.7
2023-05-24T04:26:50.215Z,1.7
2023-05-24T04:28:06.358Z,2.1
2023-05-24T04:29:22.556Z,2.5
2023-05-24T04:30:38.755Z,1.8
2023-05-24T04:31:53.964Z,2.7
2023-05-24T04:33:10.098Z,2.2
2023-05-24T04:34:26.238Z,1.7
2023-05-24T04:35:42.363Z,1.7
2023-05-24T04:36:58.505Z,1.9
2023-05-24T04:38:14.636Z,1.8
2023-05-24T04:39:30.776Z,2.4
2023-05-24T04:40:46.912Z,2
2023-05-24T04:42:03.052Z,2.1
2023-05-24T04:43:19.171Z,1.9
2023-05-24T04:44:35.309Z,1.6
2023-05-24T04:45:51.456Z,2.1
2023-05-24T04:47:07.592Z,2.6
2023-05-24T04:48:23.721Z,2.1
2023-05-24T04:49:39.850Z,2.7
2023-05-24T04:50:55.989Z,2.4
2023-05-24T04:52:12.143Z,1.8
2023-05-24T04:53:28.269Z,2.4
2023-05-24T04:54:44.405Z,2.1
2023-05-24T04:56:00.542Z,2.5
2023-05-24T04:57:16.663Z,2.5
2023-05-24T04:58:32.823Z,2.3
2023-05-24T04:59:48.948Z,2.1
2023-05-24T05:01:05.079Z,2.3
2023-05-24T05:02:21.226Z,2.2
2023-05-24T05:03:37.402Z,2.1
2023-05-24T05:04:52.662Z,3
2023-05-24T05:06:07.879Z,3.5
2023-05-24T05:07:24.001Z,4.3
2023-05-24T05:08:40.153Z,3
2023-05-24T05:09:56.281Z,2.1
2023-05-24T05:11:12.414Z,2.9
2023-05-24T05:12:28.561Z,2.4
2023-05-24T05:13:44.677Z,2.2
2023-05-24T05:15:00.836Z,3.5
2023-05-24T05:16:16.958Z,3.6
2023-05-24T05:17:33.098Z,2.9
2023-05-24T05:18:49.232Z,2.2
2023-05-24T05:20:05.368Z,2.1
2023-05-24T05:21:21.523Z,2.7
2023-05-24T05:22:37.639Z,2.7
2023-05-24T05:23:53.786Z,2.7
2023-05-24T05:25:09.911Z,2.6
2023-05-24T05:26:26.045Z,3.5
2023-05-24T05:27:42.190Z,2.6
2023-05-24T05:28:58.330Z,2
2023-05-24T05:30:14.465Z,2.8
2023-05-24T05:31:30.590Z,3.3
2023-05-24T05:32:46.731Z,2.9
2023-05-24T05:34:02.870Z,3.6
2023-05-24T05:35:18.998Z,3
2023-05-24T05:36:35.142Z,3.2
2023-05-24T05:37:51.321Z,4
2023-05-24T05:39:06.572Z,2.9
2023-05-24T05:40:22.755Z,3.5
2023-05-24T05:41:37.975Z,2.8
2023-05-24T05:42:54.099Z,2.5
2023-05-24T05:44:10.248Z,2.7
2023-05-24T05:45:26.387Z,3.2
2023-05-24T05:46:42.507Z,3.6
2023-05-24T05:47:58.656Z,3.2
2023-05-24T05:49:14.776Z,3.2
2023-05-24T05:50:30.932Z,2.8
2023-05-24T05:51:47.067Z,3.1
2023-05-24T05:53:03.199Z,3
2023-05-24T05:54:19.333Z,3
2023-05-24T05:55:35.462Z,3
2023-05-24T05:56:51.612Z,3.1
2023-05-24T05:58:07.750Z,3.4
2023-05-24T05:59:23.881Z,3
2023-05-24T06:00:40.016Z,3.3
2023-05-24T06:01:56.130Z,2.8
2023-05-24T06:03:12.295Z,3.8
2023-05-24T06:04:28.416Z,2.2
2023-05-24T06:05:44.557Z,4.5
2023-05-24T06:07:00.693Z,4.3
2023-05-24T06:08:16.827Z,4.7
2023-05-24T06:09:32.960Z,3.8
2023-05-24T06:10:49.098Z,3.2
2023-05-24T06:12:05.242Z,2.9
2023-05-24T06:13:21.431Z,3.6
2023-05-24T06:14:36.656Z,4.3
2023-05-24T06:15:51.881Z,2.8
2023-05-24T06:17:07.016Z,4.3
2023-05-24T06:18:23.167Z,4.1
2023-05-24T06:19:39.295Z,4.5
2023-05-24T06:20:55.433Z,3.1
2023-05-24T06:22:11.568Z,3.6
2023-05-24T06:23:27.702Z,3.1
2023-05-24T06:24:43.853Z,3.4
2023-05-24T06:25:59.987Z,3.4
2023-05-24T06:27:16.115Z,3.9
2023-05-24T06:28:32.261Z,3.7
2023-05-24T06:29:48.390Z,3.2
2023-05-24T06:31:04.535Z,4
2023-05-24T06:32:20.656Z,3.3
2023-05-24T06:33:36.802Z,4.4
2023-05-24T06:34:52.923Z,4
2023-05-24T06:36:09.071Z,4.1
2023-05-24T06:37:25.203Z,3.6
2023-05-24T06:38:41.352Z,3.7
2023-05-24T06:39:57.486Z,3.4
2023-05-24T06:41:13.620Z,3.7
2023-05-24T06:42:29.751Z,3.5
2023-05-24T06:43:45.893Z,3.2
2023-05-24T06:45:02.017Z,5.2
2023-05-24T06:46:18.155Z,3.4
2023-05-24T06:47:34.302Z,4.5
2023-05-24T06:48:50.429Z,4.1
2023-05-24T06:50:06.577Z,4.2
2023-05-24T06:51:22.705Z,6.1
2023-05-24T06:52:38.837Z,4
2023-05-24T06:53:54.982Z,3.9
2023-05-24T06:55:11.115Z,5.1
2023-05-24T06:56:27.247Z,4.1
2023-05-24T06:57:43.388Z,5.4
2023-05-24T06:58:59.510Z,4.6
2023-05-24T07:00:15.645Z,4.6
2023-05-24T07:01:31.787Z,7.2
2023-05-24T07:02:47.944Z,4.9
2023-05-24T07:04:04.117Z,4.7
2023-05-24T07:05:19.365Z,4.1
2023-05-24T07:06:34.579Z,5.6
2023-05-24T07:07:50.703Z,4.7
2023-05-24T07:09:06.832Z,4.1
2023-05-24T07:10:22.965Z,5
2023-05-24T07:11:39.101Z,3.7
2023-05-24T07:12:55.248Z,4.7
2023-05-24T07:14:11.382Z,5.2
2023-05-24T07:15:27.529Z,4.2
2023-05-24T07:16:43.662Z,6.3
2023-05-24T07:17:59.788Z,5.3
2023-05-24T07:19:15.934Z,4.5
2023-05-24T07:20:32.062Z,6
2023-05-24T07:21:48.210Z,4
2023-05-24T07:23:04.328Z,3
2023-05-24T07:24:20.476Z,5.6
2023-05-24T07:25:36.623Z,4.3
2023-05-24T07:26:52.751Z,4.6
2023-05-24T07:28:08.880Z,4.9
2023-05-24T07:29:25.023Z,5
2023-05-24T07:30:41.155Z,5.3
2023-05-24T07:31:57.295Z,4.9
2023-05-24T07:33:13.428Z,4
2023-05-24T07:34:29.568Z,6.8
2023-05-24T07:35:45.690Z,6.7
2023-05-24T07:37:01.828Z,7
2023-05-24T07:38:18.033Z,5.4
2023-05-24T07:39:33.271Z,6.1
2023-05-24T07:40:48.472Z,6.2
2023-05-24T07:42:04.628Z,7.7
2023-05-24T07:43:20.746Z,6.3
2023-05-24T07:44:36.897Z,4.8
2023-05-24T07:45:53.021Z,6.4
2023-05-24T07:47:09.149Z,5.4
2023-05-24T07:48:25.306Z,5.5
2023-05-24T07:49:41.442Z,4.6
2023-05-24T07:50:57.570Z,7.3
2023-05-24T07:52:13.699Z,5
2023-05-24T07:53:29.846Z,4.8
2023-05-24T07:54:45.994Z,5.4
2023-05-24T07:56:02.124Z,5.3
2023-05-24T07:57:18.254Z,3.7
2023-05-24T07:58:34.379Z,4.5
2023-05-24T07:59:50.516Z,6.2
2023-05-24T08:01:06.668Z,4.3
2023-05-24T08:02:22.802Z,4.8
2023-05-24T08:03:38.931Z,6.2
2023-05-24T08:04:55.061Z,6.4
2023-05-24T08:06:11.204Z,6.6
2023-05-24T08:07:27.342Z,6.1
2023-05-24T08:08:43.475Z,4.9
2023-05-24T08:09:59.605Z,5.8
2023-05-24T08:11:15.742Z,9.9
2023-05-24T08:12:31.932Z,5.5
2023-05-24T08:13:47.173Z,4.9
2023-05-24T08:15:03.372Z,5.6
2023-05-24T08:16:18.570Z,5.5
2023-05-24T08:17:34.726Z,5.2
2023-05-24T08:18:50.856Z,4.7
2023-05-24T08:20:06.996Z,4.9
2023-05-24T08:21:23.114Z,5.2
2023-05-24T08:22:39.254Z,5
2023-05-24T08:23:55.407Z,6
2023-05-24T08:25:11.529Z,6.1
2023-05-24T08:26:27.665Z,6.3
2023-05-24T08:27:43.793Z,5.3
2023-05-24T08:28:59.929Z,6.9
2023-05-24T08:30:16.076Z,7
2023-05-24T08:31:32.222Z,5.7
2023-05-24T08:32:48.342Z,5
2023-05-24T08:34:04.484Z,4.9
2023-05-24T08:35:20.617Z,4.8
2023-05-24T08:36:36.755Z,4.7
2023-05-24T08:37:52.890Z,6.1
2023-05-24T08:39:09.033Z,6
2023-05-24T08:40:25.157Z,5
2023-05-24T08:41:41.299Z,5.1
2023-05-24T08:42:57.452Z,5
2023-05-24T08:44:13.570Z,6.1
2023-05-24T08:45:29.704Z,5.4
2023-05-24T08:46:45.856Z,4.3
2023-05-24T08:48:02.047Z,4.2
2023-05-24T08:49:17.269Z,4.1
2023-05-24T08:50:32.480Z,4.7
2023-05-24T08:51:48.628Z,4.6
2023-05-24T08:53:04.759Z,5.8
2023-05-24T08:54:20.891Z,5
2023-05-24T08:55:37.023Z,5.5
2023-05-24T08:56:53.169Z,7.7
2023-05-24T08:58:09.290Z,6.1
2023-05-24T08:59:25.454Z,4.6
2023-05-24T09:00:41.576Z,4.8
2023-05-24T09:01:57.708Z,4.8
2023-05-24T09:03:13.847Z,4.7
2023-05-24T09:04:29.983Z,4.6
2023-05-24T09:05:46.131Z,6.7
2023-05-24T09:07:02.261Z,5.5
2023-05-24T09:08:18.386Z,6.8
2023-05-24T09:09:34.526Z,5.1
2023-05-24T09:10:50.657Z,4.8
2023-05-24T09:12:06.820Z,6.1
2023-05-24T09:14:39.082Z,6.4
2023-05-24T09:15:55.214Z,5.1
2023-05-24T09:17:11.352Z,4.3
2023-05-24T09:18:27.501Z,3.7
2023-05-24T09:19:43.622Z,5
2023-05-24T09:20:59.754Z,4.5
2023-05-24T09:22:15.956Z,3.9
2023-05-24T09:23:31.219Z,5.6
2023-05-24T09:24:46.407Z,4.6
2023-05-24T09:26:01.561Z,6
2023-05-24T09:27:17.712Z,5.6
2023-05-24T09:28:33.849Z,4.3
2023-05-24T09:29:49.972Z,7.9
2023-05-24T09:31:06.121Z,5.1
2023-05-24T09:32:22.249Z,6.3
2023-05-24T09:33:38.398Z,4.5
2023-05-24T09:34:54.524Z,4.9
2023-05-24T09:36:10.661Z,5.2
2023-05-24T09:37:26.795Z,3.7
2023-05-24T09:38:42.918Z,4.9
2023-05-24T09:39:59.079Z,5.6
2023-05-24T09:41:15.216Z,4.6
2023-05-24T09:42:31.350Z,4.2
2023-05-24T09:43:47.477Z,3.7
2023-05-24T09:45:03.609Z,5
2023-05-24T09:46:19.752Z,3.9
2023-05-24T09:47:35.883Z,3.4
2023-05-24T09:48:52.022Z,3.2
2023-05-24T09:50:08.151Z,4.6
2023-05-24T09:51:24.281Z,4.8
2023-05-24T09:52:40.436Z,5.7
2023-05-24T09:53:56.570Z,6.5
2023-05-24T09:55:12.703Z,3.9
2023-05-24T09:56:28.836Z,5.1
2023-05-24T09:57:44.960Z,6.1
2023-05-24T09:59:01.123Z,4.9
2023-05-24T10:00:17.253Z,5.3
2023-05-24T10:01:33.374Z,3.3
2023-05-24T10:02:49.525Z,4.8
2023-05-24T10:04:05.658Z,3.3
2023-05-24T10:05:21.805Z,4.3
2023-05-24T10:06:37.921Z,5.1
2023-05-24T10:07:54.057Z,3.3
2023-05-24T10:09:10.205Z,3.8
2023-05-24T10:10:26.328Z,3.7
2023-05-24T10:11:42.479Z,5
2023-05-24T10:12:58.674Z,4.3
2023-05-24T10:14:13.912Z,7.7
2023-05-24T10:15:29.113Z,6.3
2023-05-24T10:16:45.244Z,3.9
2023-05-24T10:18:01.374Z,3.8
2023-05-24T10:19:17.514Z,4.6
2023-05-24T10:20:33.648Z,4.9
2023-05-24T10:21:49.797Z,4.3
2023-05-24T10:23:05.933Z,4.1
2023-05-24T10:24:22.067Z,6.6
2023-05-24T10:25:38.195Z,7.7
2023-05-24T10:26:54.339Z,5
2023-05-24T10:28:10.474Z,5.5
2023-05-24T10:29:26.605Z,4.1
2023-05-24T10:30:42.736Z,3.7
2023-05-24T10:31:58.872Z,4.1
2023-05-24T10:33:15.017Z,4.9
2023-05-24T10:34:31.152Z,5
2023-05-24T10:35:47.286Z,5.7
2023-05-24T10:37:03.424Z,3.7
2023-05-24T10:38:19.558Z,4.5
2023-05-24T10:39:35.682Z,4.7
2023-05-24T10:40:51.836Z,6.4
2023-05-24T10:42:07.976Z,3.8
2023-05-24T10:43:24.112Z,5.5
2023-05-24T10:44:40.243Z,4.4
2023-05-24T10:45:56.363Z,4.2
2023-05-24T10:47:12.582Z,4.1
2023-05-24T10:48:27.827Z,3.8
2023-05-24T10:49:44.016Z,3.7
2023-05-24T10:50:59.222Z,4.6
2023-05-24T10:52:15.352Z,6
2023-05-24T10:53:31.475Z,4.1
2023-05-24T10:54:47.623Z,6
2023-05-24T10:56:03.741Z,3.8
2023-05-24T10:57:19.900Z,4.6
2023-05-24T10:58:36.031Z,3.4
2023-05-24T10:59:52.165Z,5.7
2023-05-24T11:01:08.297Z,4.4
2023-05-24T11:02:24.427Z,3.3
2023-05-24T11:03:40.574Z,3.3
2023-05-24T11:04:56.711Z,4.5
2023-05-24T11:06:12.845Z,4.1
2023-05-24T11:07:28.977Z,3.1
2023-05-24T11:08:45.108Z,4
2023-05-24T11:10:01.266Z,6.7
2023-05-24T11:11:17.401Z,3.1
2023-05-24T11:12:33.536Z,2.7
2023-05-24T11:13:49.664Z,3
2023-05-24T11:15:05.794Z,3.8
2023-05-24T11:16:21.955Z,3.1
2023-05-24T11:17:38.076Z,4.7
2023-05-24T11:18:54.207Z,5
2023-05-24T11:20:10.345Z,3.8
2023-05-24T11:21:26.485Z,4.5
2023-05-24T11:22:42.685Z,3.3
2023-05-24T11:23:57.935Z,6.1
2023-05-24T11:25:13.135Z,2.9
2023-05-24T11:26:29.272Z,3.7
2023-05-24T11:27:45.417Z,3.9
2023-05-24T11:29:01.534Z,5.1
2023-05-24T11:30:17.675Z,3.5
2023-05-24T11:31:33.799Z,3.6
2023-05-24T11:32:49.956Z,3.4
2023-05-24T11:34:06.095Z,4.5
2023-05-24T11:35:22.227Z,6.1
2023-05-24T11:36:38.345Z,5.8
2023-05-24T11:37:54.481Z,4.3
2023-05-24T11:39:10.642Z,6.5
2023-05-24T11:40:26.768Z,4.9
2023-05-24T11:41:42.911Z,3.3
2023-05-24T11:42:59.027Z,5.2
2023-05-24T11:44:15.162Z,5
2023-05-24T11:45:31.307Z,3.2
2023-05-24T11:46:47.450Z,4.2
2023-05-24T11:48:03.579Z,4.8
2023-05-24T11:49:19.721Z,5.1
2023-05-24T11:50:35.860Z,5.2
2023-05-24T11:51:51.995Z,7.6
2023-05-24T11:53:08.137Z,4.9
2023-05-24T11:54:24.268Z,5.7
2023-05-24T11:55:40.398Z,5.3
2023-05-24T11:56:56.596Z,6.7
2023-05-24T11:58:11.819Z,5
2023-05-24T11:59:27.027Z,6.6
2023-05-24T12:00:43.163Z,5.8
2023-05-24T12:01:59.315Z,8.6
2023-05-24T12:03:15.452Z,5.6
2023-05-24T12:04:31.593Z,8.8
2023-05-24T12:05:47.716Z,6.9
2023-05-24T12:07:03.841Z,7.5
2023-05-24T12:08:20.003Z,5.9
2023-05-24T12:09:36.123Z,9.3
2023-05-24T12:10:52.261Z,6.8
2023-05-24T12:12:08.394Z,8.6
2023-05-24T12:13:24.537Z,6.3
2023-05-24T12:14:40.673Z,5.2
2023-05-24T12:15:56.806Z,5.9
2023-05-24T12:17:12.942Z,5.6
2023-05-24T12:18:29.079Z,7.3
2023-05-24T12:19:45.203Z,6.4
2023-05-24T12:21:01.355Z,5.1
2023-05-24T12:22:17.497Z,8.1
2023-05-24T12:23:33.630Z,5.8
2023-05-24T12:24:49.754Z,5.7
2023-05-24T12:26:05.887Z,6.5
2023-05-24T12:27:22.031Z,7.4
2023-05-24T12:28:38.175Z,7.6
2023-05-24T12:29:54.301Z,5.8
2023-05-24T12:31:10.492Z,5.3
2023-05-24T12:32:25.748Z,6
2023-05-24T12:33:41.937Z,7.6
2023-05-24T12:34:57.133Z,5.3
2023-05-24T12:36:13.277Z,5.7
2023-05-24T12:37:29.428Z,6.7
2023-05-24T12:38:45.543Z,8
2023-05-24T12:40:01.689Z,5.8
2023-05-24T12:41:17.821Z,5.8
2023-05-24T12:42:33.962Z,6.6
2023-05-24T12:43:50.107Z,6.7
2023-05-24T12:45:06.228Z,6.7
2023-05-24T12:46:22.359Z,4.3
2023-05-24T12:47:38.503Z,5.4
2023-05-24T12:48:54.643Z,5.2
2023-05-24T12:50:10.789Z,7.3
2023-05-24T12:51:26.917Z,9.8
2023-05-24T12:52:43.043Z,8.3
2023-05-24T12:53:59.181Z,5.2
2023-05-24T12:55:15.326Z,6.4
2023-05-24T12:56:31.469Z,6.7
2023-05-24T12:57:47.601Z,4.8
2023-05-24T12:59:03.735Z,3.8
2023-05-24T13:00:19.862Z,5.7
2023-05-24T13:01:36.009Z,8.6
2023-05-24T13:02:52.150Z,8.9
2023-05-24T13:04:08.290Z,5.9
2023-05-24T13:05:24.411Z,5.6
2023-05-24T13:06:40.604Z,5.2
2023-05-24T13:07:55.875Z,5.3
2023-05-24T13:09:11.081Z,5.9
2023-05-24T13:10:26.235Z,6.3
2023-05-24T13:11:42.383Z,5.6
2023-05-24T13:12:58.517Z,3.9
2023-05-24T13:14:14.646Z,6.2
2023-05-24T13:15:30.791Z,4.6
2023-05-24T13:16:46.922Z,5.1
2023-05-24T13:18:03.075Z,5.3
2023-05-24T13:19:19.199Z,5.6
2023-05-24T13:20:35.332Z,5
2023-05-24T13:21:51.456Z,5.1
2023-05-24T13:23:07.603Z,4.9
2023-05-24T13:24:23.751Z,3.7
2023-05-24T13:25:39.880Z,4.3
2023-05-24T13:26:56.018Z,5.8
2023-05-24T13:29:28.279Z,6.6
2023-05-24T13:30:44.426Z,5.3
2023-05-24T13:32:00.553Z,6.3
2023-05-24T13:33:16.702Z,4.9
2023-05-24T13:34:32.836Z,5.2
2023-05-24T13:35:48.962Z,4.5
2023-05-24T13:37:05.119Z,6.1
2023-05-24T13:38:21.253Z,3.8
2023-05-24T13:39:37.372Z,6.8
2023-05-24T13:40:53.513Z,4
2023-05-24T13:42:09.649Z,4.7
2023-05-24T13:43:25.797Z,5.2
2023-05-24T13:44:41.925Z,4.9
2023-05-24T13:45:58.062Z,3.9
2023-05-24T13:47:14.184Z,5.3
2023-05-24T13:48:30.315Z,4
2023-05-24T13:49:46.470Z,4.9
2023-05-24T13:51:02.611Z,4.8
2023-05-24T13:52:18.732Z,4.8
2023-05-24T13:53:34.874Z,5.2
2023-05-24T13:54:51.004Z,3.8
2023-05-24T13:56:07.159Z,4.3
2023-05-24T13:57:23.337Z,4.6
2023-05-24T13:58:38.599Z,4.5
2023-05-24T13:59:53.819Z,6.4
2023-05-24T14:01:09.937Z,5.2
2023-05-24T14:02:26.085Z,3.1
2023-05-24T14:03:42.207Z,3.7
2023-05-24T14:04:58.336Z,4.3
2023-05-24T14:06:14.487Z,3.2
2023-05-24T14:07:30.624Z,4.3
2023-05-24T14:08:46.763Z,4.6
2023-05-24T14:10:02.892Z,3.4
2023-05-24T14:11:19.154Z,4
2023-05-24T14:12:35.298Z,3
2023-05-24T14:13:51.421Z,4.4
2023-05-24T14:15:07.561Z,4.5
2023-05-24T14:16:23.703Z,5.3
2023-05-24T14:17:39.825Z,5.2
2023-05-24T14:18:55.969Z,4.6
2023-05-24T14:20:12.106Z,4
2023-05-24T14:21:28.234Z,4.1
2023-05-24T14:22:44.376Z,7.6
2023-05-24T14:24:00.506Z,8.1
2023-05-24T14:25:16.645Z,8.2
2023-05-24T14:26:32.796Z,7.3
2023-05-24T14:27:48.916Z,7.8
2023-05-24T14:29:05.064Z,7.8
2023-05-24T14:30:21.185Z,6.7
2023-05-24T14:31:37.345Z,7.9
2023-05-24T14:32:53.464Z,8.6
2023-05-24T14:34:09.600Z,5.7
2023-05-24T14:35:25.728Z,11.1
2023-05-24T14:36:41.861Z,6.2
2023-05-24T14:37:58.021Z,5.7
2023-05-24T14:39:14.157Z,5
2023-05-24T14:40:30.278Z,5.9
2023-05-24T14:41:46.420Z,5.4
2023-05-24T14:43:02.542Z,6.3
2023-05-24T14:44:18.703Z,4.8
2023-05-24T14:45:34.837Z,4.4
2023-05-24T14:46:50.972Z,7.7
2023-05-24T14:48:07.101Z,7.5
2023-05-24T14:49:23.229Z,6
2023-05-24T14:50:39.371Z,5.8
2023-05-24T14:51:55.502Z,6.4
2023-05-24T14:53:11.655Z,5
2023-05-24T14:54:27.782Z,4.6
2023-05-24T14:55:43.920Z,3.8
2023-05-24T14:57:00.064Z,5.8
2023-05-24T14:58:16.250Z,4.4
2023-05-24T14:59:31.466Z,4.8
2023-05-24T15:00:47.596Z,3.9
2023-05-24T15:02:03.736Z,3.8
2023-05-24T15:03:19.876Z,4.3
2023-05-24T15:04:36.000Z,4.1
2023-05-24T15:05:52.142Z,4.1
2023-05-24T15:07:08.271Z,5.2
2023-05-24T15:08:24.421Z,3.6
2023-05-24T15:09:40.558Z,5.3
2023-05-24T15:10:56.689Z,5.4
2023-05-24T15:12:12.830Z,3.8
2023-05-24T15:13:28.949Z,4.9
2023-05-24T15:14:45.110Z,4
2023-05-24T15:16:01.232Z,7.2
2023-05-24T15:17:17.373Z,4.2
2023-05-24T15:18:33.504Z,5.8
2023-05-24T15:19:49.639Z,4.2
2023-05-24T15:21:05.773Z,4.6
2023-05-24T15:22:21.920Z,6.1
2023-05-24T15:23:38.040Z,4.2
2023-05-24T15:24:54.185Z,4.6
2023-05-24T15:26:10.317Z,4.3
2023-05-24T15:27:26.451Z,4.3
2023-05-24T15:28:42.595Z,2.6
2023-05-24T15:29:58.719Z,4.4
2023-05-24T15:31:14.915Z,3.4
2023-05-24T15:32:30.149Z,4.2
2023-05-24T15:33:45.372Z,4.1
2023-05-24T15:35:00.505Z,2.5
2023-05-24T15:36:16.660Z,3.4
2023-05-24T15:37:32.799Z,4.5
2023-05-24T15:38:48.929Z,3.2
2023-05-24T15:40:05.065Z,4.8
2023-05-24T15:41:21.188Z,4.3
2023-05-24T15:42:37.339Z,3.1
2023-05-24T15:43:53.465Z,3.3
2023-05-24T15:45:09.606Z,4.2
2023-05-24T15:46:25.733Z,4.7
2023-05-24T15:47:41.880Z,4.3
2023-05-24T15:48:58.026Z,3.6
2023-05-24T15:50:14.159Z,4.1
2023-05-24T15:51:30.292Z,3.7
2023-05-24T15:52:46.426Z,3.5
2023-05-24T15:54:02.558Z,3.2
2023-05-24T15:55:18.711Z,4.7
2023-05-24T15:56:34.834Z,4.6
2023-05-24T15:57:50.962Z,4.3
2023-05-24T15:59:07.109Z,3.2
2023-05-24T16:00:23.234Z,4.7
2023-05-24T16:01:39.384Z,4
2023-05-24T16:02:55.521Z,4.7
2023-05-24T16:04:11.639Z,3.7
2023-05-24T16:05:27.776Z,3
2023-05-24T16:06:43.924Z,4
2023-05-24T16:08:00.063Z,2.8
2023-05-24T16:09:16.204Z,3.5
2023-05-24T16:10:32.334Z,3.7
2023-05-24T16:11:48.465Z,4
2023-05-24T16:13:04.605Z,3.6
2023-05-24T16:14:20.740Z,3.2
2023-05-24T16:15:36.869Z,2.8
2023-05-24T16:16:53.018Z,2.8
2023-05-24T16:18:09.148Z,3.2
2023-05-24T16:19:25.270Z,2.3
2023-05-24T16:20:41.424Z,3.9
2023-05-24T16:21:57.623Z,3.7
2023-05-24T16:23:12.847Z,3.5
2023-05-24T16:24:28.056Z,3
2023-05-24T16:25:44.204Z,3.9
2023-05-24T16:27:00.324Z,3.3
2023-05-24T16:28:16.453Z,2.9
2023-05-24T16:29:32.604Z,3.4
2023-05-24T16:30:48.737Z,3.4
2023-05-24T16:32:04.867Z,3.1
2023-05-24T16:33:21.006Z,2.9
2023-05-24T16:34:37.146Z,3.4
2023-05-24T16:35:53.281Z,2.8
2023-05-24T16:37:09.424Z,4
2023-05-24T16:38:25.554Z,2.7
2023-05-24T16:39:41.690Z,3.2
2023-05-24T16:40:57.829Z,3.2
2023-05-24T16:42:13.950Z,2.7
2023-05-24T16:43:30.095Z,3.2
2023-05-24T16:44:46.226Z,2.8
2023-05-24T16:46:02.362Z,2.8
2023-05-24T16:47:18.497Z,3.1
2023-05-24T16:48:34.629Z,2.9
2023-05-24T16:49:50.782Z,4
2023-05-24T16:51:06.909Z,3.3
2023-05-24T16:52:23.049Z,2.9
2023-05-24T16:53:39.172Z,2.6
2023-05-24T16:54:55.323Z,3.1
2023-05-24T16:56:11.514Z,3
2023-05-24T16:57:26.764Z,3.1
2023-05-24T16:58:41.966Z,2.4
2023-05-24T16:59:58.105Z,2.9
2023-05-24T17:01:14.250Z,2.5
2023-05-24T17:02:30.375Z,3.1
2023-05-24T17:03:46.502Z,4.1
2023-05-24T17:05:02.640Z,2.3
2023-05-24T17:06:18.782Z,2.5
2023-05-24T17:07:34.928Z,4.8
2023-05-24T17:08:51.066Z,2.7
2023-05-24T17:10:07.200Z,3.2
2023-05-24T17:11:23.314Z,2.5
2023-05-24T17:12:39.461Z,3.2
2023-05-24T17:13:55.606Z,2.6
2023-05-24T17:15:11.742Z,3
2023-05-24T17:16:27.871Z,3.5
2023-05-24T17:17:43.992Z,3.6
2023-05-24T17:19:00.146Z,1.9
2023-05-24T17:20:16.276Z,2.2
2023-05-24T17:21:32.426Z,2.5
2023-05-24T17:22:48.554Z,2.9
2023-05-24T17:24:04.673Z,2.5
2023-05-24T17:25:20.821Z,2.8
2023-05-24T17:26:36.963Z,2.6
2023-05-24T17:27:53.104Z,2.1
2023-05-24T17:29:09.239Z,2.7
2023-05-24T17:30:25.417Z,2.3
2023-05-24T17:31:40.656Z,3.4
2023-05-24T17:32:55.866Z,3
2023-05-24T17:34:12.004Z,2.3
2023-05-24T17:35:28.141Z,2.4
2023-05-24T17:36:44.286Z,2.6
2023-05-24T17:39:16.544Z,2.2